sensor_id;sensor_type;location;lat;lon;timestamp;pressure;altitude;pressure_sealevel;temperature;humidity
35489;BME280;21602;55.670;37.578;2023-03-20T00:00:24;99677.91;;;1.28;68.48
35489;BME280;21602;55.670;37.578;2023-03-20T00:02:53;99684.00;;;1.20;68.76
35489;BME280;21602;55.670;37.578;2023-03-20T00:05:21;99681.56;;;1.19;68.86
35489;BME280;21602;55.670;37.578;2023-03-20T00:07:48;99681.88;;;1.16;68.98
35489;BME280;21602;55.670;37.578;2023-03-20T00:10:18;99685.16;;;1.10;69.26
35489;BME280;21602;55.670;37.578;2023-03-20T00:12:47;99674.31;;;1.05;69.43
35489;BME280;21602;55.670;37.578;2023-03-20T00:15:29;99678.91;;;1.02;69.58
35489;BME280;21602;55.670;37.578;2023-03-20T00:17:57;99677.09;;;0.95;69.32
35489;BME280;21602;55.670;37.578;2023-03-20T00:20:24;99678.56;;;0.89;69.72
35489;BME280;21602;55.670;37.578;2023-03-20T00:22:50;99674.63;;;0.85;70.00
35489;BME280;21602;55.670;37.578;2023-03-20T00:25:19;99685.97;;;0.86;70.12
35489;BME280;21602;55.670;37.578;2023-03-20T00:27:46;99673.78;;;0.85;70.19
35489;BME280;21602;55.670;37.578;2023-03-20T00:30:24;99677.09;;;0.87;70.25
35489;BME280;21602;55.670;37.578;2023-03-20T00:32:51;99672.34;;;0.90;70.14
35489;BME280;21602;55.670;37.578;2023-03-20T00:35:29;99671.00;;;0.94;70.22
35489;BME280;21602;55.670;37.578;2023-03-20T00:37:56;99668.88;;;0.98;70.03
35489;BME280;21602;55.670;37.578;2023-03-20T00:40:27;99669.56;;;1.00;69.80
35489;BME280;21602;55.670;37.578;2023-03-20T00:43:00;99671.84;;;1.03;69.76
35489;BME280;21602;55.670;37.578;2023-03-20T00:45:29;99671.53;;;1.06;69.75
35489;BME280;21602;55.670;37.578;2023-03-20T00:47:56;99672.03;;;1.10;69.83
35489;BME280;21602;55.670;37.578;2023-03-20T00:50:28;99668.22;;;1.12;69.81
35489;BME280;21602;55.670;37.578;2023-03-20T00:52:58;99668.41;;;1.11;69.72
35489;BME280;21602;55.670;37.578;2023-03-20T00:55:27;99674.31;;;1.13;69.81
35489;BME280;21602;55.670;37.578;2023-03-20T00:57:58;99665.28;;;1.15;69.72
35489;BME280;21602;55.670;37.578;2023-03-20T01:02:52;99657.22;;;1.17;69.49
35489;BME280;21602;55.670;37.578;2023-03-20T01:05:20;99655.75;;;1.14;69.57
35489;BME280;21602;55.670;37.578;2023-03-20T01:07:46;99658.38;;;1.14;69.60
35489;BME280;21602;55.670;37.578;2023-03-20T01:10:13;99665.59;;;1.12;69.34
35489;BME280;21602;55.670;37.578;2023-03-20T01:12:40;99664.78;;;1.12;69.53
35489;BME280;21602;55.670;37.578;2023-03-20T01:15:21;99663.63;;;1.14;69.32
35489;BME280;21602;55.670;37.578;2023-03-20T01:17:48;99661.16;;;1.13;69.50
35489;BME280;21602;55.670;37.578;2023-03-20T01:20:17;99661.16;;;1.13;69.40
35489;BME280;21602;55.670;37.578;2023-03-20T01:22:43;99661.97;;;1.13;69.22
35489;BME280;21602;55.670;37.578;2023-03-20T01:25:10;99655.91;;;1.13;69.13
35489;BME280;21602;55.670;37.578;2023-03-20T01:27:36;99656.72;;;1.13;69.23
35489;BME280;21602;55.670;37.578;2023-03-20T01:30:02;99653.94;;;1.15;68.94
35489;BME280;21602;55.670;37.578;2023-03-20T01:32:29;99652.28;;;1.14;68.90
35489;BME280;21602;55.670;37.578;2023-03-20T01:34:55;99643.56;;;1.13;68.39
35489;BME280;21602;55.670;37.578;2023-03-20T01:37:26;99639.63;;;1.17;67.92
35489;BME280;21602;55.670;37.578;2023-03-20T01:39:54;99640.75;;;1.23;67.21
35489;BME280;21602;55.670;37.578;2023-03-20T01:42:22;99640.63;;;1.24;66.82
35489;BME280;21602;55.670;37.578;2023-03-20T01:44:47;99635.00;;;1.27;65.88
35489;BME280;21602;55.670;37.578;2023-03-20T01:47:19;99630.56;;;1.28;65.90
35489;BME280;21602;55.670;37.578;2023-03-20T01:50:25;99632.22;;;1.29;66.07
35489;BME280;21602;55.670;37.578;2023-03-20T01:53:24;99633.69;;;1.23;66.19
35489;BME280;21602;55.670;37.578;2023-03-20T01:55:57;99630.59;;;1.20;65.83
35489;BME280;21602;55.670;37.578;2023-03-20T01:58:36;99629.78;;;1.19;66.57
35489;BME280;21602;55.670;37.578;2023-03-20T02:01:05;99622.84;;;1.18;66.57
35489;BME280;21602;55.670;37.578;2023-03-20T02:03:34;99621.22;;;1.17;66.12
35489;BME280;21602;55.670;37.578;2023-03-20T02:06:32;99620.41;;;1.17;66.19
35489;BME280;21602;55.670;37.578;2023-03-20T02:09:13;99616.13;;;1.16;65.60
35489;BME280;21602;55.670;37.578;2023-03-20T02:11:42;99616.47;;;1.13;65.00
35489;BME280;21602;55.670;37.578;2023-03-20T02:14:10;99615.13;;;1.09;64.26
35489;BME280;21602;55.670;37.578;2023-03-20T02:17:01;99603.97;;;1.07;63.91
35489;BME280;21602;55.670;37.578;2023-03-20T02:31:55;99609.88;;;1.09;63.16
35489;BME280;21602;55.670;37.578;2023-03-20T02:35:15;99610.88;;;1.08;63.83
35489;BME280;21602;55.670;37.578;2023-03-20T02:40:20;99609.06;;;1.08;63.55
35489;BME280;21602;55.670;37.578;2023-03-20T02:43:40;99603.81;;;1.08;62.95
35489;BME280;21602;55.670;37.578;2023-03-20T02:48:42;99604.16;;;1.05;63.07
35489;BME280;21602;55.670;37.578;2023-03-20T02:51:32;99597.22;;;1.04;62.87
35489;BME280;21602;55.670;37.578;2023-03-20T02:54:16;99595.59;;;1.03;62.89
35489;BME280;21602;55.670;37.578;2023-03-20T02:59:31;99592.66;;;1.06;62.93
35489;BME280;21602;55.670;37.578;2023-03-20T03:02:14;99596.72;;;1.09;62.95
35489;BME280;21602;55.670;37.578;2023-03-20T03:04:53;99588.69;;;1.10;62.78
35489;BME280;21602;55.670;37.578;2023-03-20T03:07:27;99587.72;;;1.11;62.47
35489;BME280;21602;55.670;37.578;2023-03-20T03:10:04;99587.53;;;1.13;62.40
35489;BME280;21602;55.670;37.578;2023-03-20T03:12:35;99591.78;;;1.14;62.05
35489;BME280;21602;55.670;37.578;2023-03-20T03:15:05;99590.84;;;1.15;62.21
35489;BME280;21602;55.670;37.578;2023-03-20T03:17:35;99584.56;;;1.16;62.31
35489;BME280;21602;55.670;37.578;2023-03-20T03:20:14;99585.22;;;1.18;62.17
35489;BME280;21602;55.670;37.578;2023-03-20T03:22:44;99573.06;;;1.17;62.16
35489;BME280;21602;55.670;37.578;2023-03-20T03:25:11;99577.34;;;1.18;62.07
35489;BME280;21602;55.670;37.578;2023-03-20T03:27:44;99575.06;;;1.15;61.97
35489;BME280;21602;55.670;37.578;2023-03-20T03:30:18;99573.38;;;1.14;62.15
35489;BME280;21602;55.670;37.578;2023-03-20T03:32:56;99560.59;;;1.11;62.16
35489;BME280;21602;55.670;37.578;2023-03-20T03:35:27;99564.03;;;1.11;62.16
35489;BME280;21602;55.670;37.578;2023-03-20T03:46:05;99565.84;;;1.19;62.20
35489;BME280;21602;55.670;37.578;2023-03-20T03:48:41;99563.53;;;1.24;62.15
35489;BME280;21602;55.670;37.578;2023-03-20T03:51:12;99564.81;;;1.28;62.14
35489;BME280;21602;55.670;37.578;2023-03-20T03:54:07;99560.88;;;1.32;61.98
35489;BME280;21602;55.670;37.578;2023-03-20T03:56:37;99554.47;;;1.35;62.02
35489;BME280;21602;55.670;37.578;2023-03-20T03:59:09;99558.53;;;1.37;61.82
35489;BME280;21602;55.670;37.578;2023-03-20T04:01:42;99560.22;;;1.38;61.89
35489;BME280;21602;55.670;37.578;2023-03-20T04:04:11;99559.84;;;1.41;61.54
35489;BME280;21602;55.670;37.578;2023-03-20T04:06:39;99553.59;;;1.42;61.71
35489;BME280;21602;55.670;37.578;2023-03-20T04:09:07;99559.53;;;1.44;61.64
35489;BME280;21602;55.670;37.578;2023-03-20T04:11:34;99552.28;;;1.46;61.75
35489;BME280;21602;55.670;37.578;2023-03-20T04:14:01;99548.50;;;1.49;61.58
35489;BME280;21602;55.670;37.578;2023-03-20T04:16:27;99560.47;;;1.51;61.57
35489;BME280;21602;55.670;37.578;2023-03-20T04:18:53;99556.88;;;1.52;61.29
35489;BME280;21602;55.670;37.578;2023-03-20T04:21:21;99549.28;;;1.58;61.58
35489;BME280;21602;55.670;37.578;2023-03-20T04:23:48;99546.97;;;1.63;61.53
35489;BME280;21602;55.670;37.578;2023-03-20T04:26:15;99552.34;;;1.69;61.33
35489;BME280;21602;55.670;37.578;2023-03-20T04:28:41;99550.03;;;1.74;61.04
35489;BME280;21602;55.670;37.578;2023-03-20T04:31:29;99546.53;;;1.82;60.82
35489;BME280;21602;55.670;37.578;2023-03-20T04:34:13;99549.59;;;1.94;61.02
35489;BME280;21602;55.670;37.578;2023-03-20T04:36:44;99535.69;;;2.08;60.47
35489;BME280;21602;55.670;37.578;2023-03-20T04:39:14;99544.84;;;2.20;59.79
35489;BME280;21602;55.670;37.578;2023-03-20T04:41:41;99537.19;;;2.34;59.60
35489;BME280;21602;55.670;37.578;2023-03-20T04:44:07;99550.75;;;2.45;59.19
35489;BME280;21602;55.670;37.578;2023-03-20T04:46:35;99545.09;;;2.56;58.20
35489;BME280;21602;55.670;37.578;2023-03-20T04:49:05;99539.66;;;2.73;58.15
35489;BME280;21602;55.670;37.578;2023-03-20T04:51:31;99546.59;;;2.89;57.66
35489;BME280;21602;55.670;37.578;2023-03-20T04:53:57;99542.34;;;3.02;57.01
35489;BME280;21602;55.670;37.578;2023-03-20T04:56:23;99541.28;;;3.12;56.60
35489;BME280;21602;55.670;37.578;2023-03-20T04:58:50;99545.13;;;3.24;56.16
35489;BME280;21602;55.670;37.578;2023-03-20T05:01:19;99543.50;;;3.38;55.73
35489;BME280;21602;55.670;37.578;2023-03-20T05:03:45;99535.56;;;3.52;55.13
35489;BME280;21602;55.670;37.578;2023-03-20T05:06:11;99541.09;;;3.57;53.70
35489;BME280;21602;55.670;37.578;2023-03-20T05:08:41;99538.53;;;3.64;53.69
35489;BME280;21602;55.670;37.578;2023-03-20T05:11:07;99542.00;;;3.65;52.97
35489;BME280;21602;55.670;37.578;2023-03-20T05:14:04;99543.06;;;3.70;52.37
35489;BME280;21602;55.670;37.578;2023-03-20T05:16:31;99544.63;;;3.65;51.38
35489;BME280;21602;55.670;37.578;2023-03-20T05:19:05;99545.56;;;3.72;51.56
35489;BME280;21602;55.670;37.578;2023-03-20T05:21:53;99544.19;;;3.76;51.18
35489;BME280;21602;55.670;37.578;2023-03-20T05:24:44;99538.91;;;3.76;50.81
35489;BME280;21602;55.670;37.578;2023-03-20T05:27:30;99542.97;;;3.78;50.56
35489;BME280;21602;55.670;37.578;2023-03-20T05:30:23;99540.59;;;3.83;50.55
35489;BME280;21602;55.670;37.578;2023-03-20T05:33:07;99541.69;;;3.89;50.41
35489;BME280;21602;55.670;37.578;2023-03-20T05:35:51;99541.78;;;3.96;50.09
35489;BME280;21602;55.670;37.578;2023-03-20T05:38:49;99538.91;;;4.12;49.45
35489;BME280;21602;55.670;37.578;2023-03-20T05:41:52;99540.88;;;4.25;49.33
35489;BME280;21602;55.670;37.578;2023-03-20T05:44:44;99538.53;;;4.36;48.60
35489;BME280;21602;55.670;37.578;2023-03-20T05:47:42;99544.75;;;4.50;47.53
35489;BME280;21602;55.670;37.578;2023-03-20T05:50:27;99538.16;;;4.61;47.73
35489;BME280;21602;55.670;37.578;2023-03-20T05:53:15;99544.41;;;4.75;47.31
35489;BME280;21602;55.670;37.578;2023-03-20T05:56:16;99543.41;;;4.82;46.56
35489;BME280;21602;55.670;37.578;2023-03-20T05:58:50;99542.72;;;4.95;46.64
35489;BME280;21602;55.670;37.578;2023-03-20T06:01:33;99550.94;;;5.07;46.40
35489;BME280;21602;55.670;37.578;2023-03-20T06:04:09;99545.25;;;5.10;45.68
35489;BME280;21602;55.670;37.578;2023-03-20T06:06:51;99544.44;;;5.09;45.56
35489;BME280;21602;55.670;37.578;2023-03-20T06:09:17;99552.28;;;4.96;44.55
35489;BME280;21602;55.670;37.578;2023-03-20T06:11:43;99551.22;;;4.91;44.24
35489;BME280;21602;55.670;37.578;2023-03-20T06:14:12;99551.59;;;4.87;44.70
35489;BME280;21602;55.670;37.578;2023-03-20T06:16:41;99546.28;;;4.81;44.39
35489;BME280;21602;55.670;37.578;2023-03-20T06:19:08;99546.03;;;4.76;44.45
35489;BME280;21602;55.670;37.578;2023-03-20T06:21:35;99545.94;;;4.69;44.38
35489;BME280;21602;55.670;37.578;2023-03-20T06:24:02;99542.81;;;4.59;44.34
35489;BME280;21602;55.670;37.578;2023-03-20T06:26:29;99541.56;;;4.55;44.02
35489;BME280;21602;55.670;37.578;2023-03-20T06:29:05;99546.03;;;4.54;44.23
35489;BME280;21602;55.670;37.578;2023-03-20T06:31:32;99542.78;;;4.52;44.78
35489;BME280;21602;55.670;37.578;2023-03-20T06:34:00;99544.41;;;4.53;44.35
35489;BME280;21602;55.670;37.578;2023-03-20T06:36:27;99545.22;;;4.54;44.27
35489;BME280;21602;55.670;37.578;2023-03-20T06:38:59;99540.75;;;4.54;44.52
35489;BME280;21602;55.670;37.578;2023-03-20T06:41:27;99532.63;;;4.56;44.51
35489;BME280;21602;55.670;37.578;2023-03-20T06:43:53;99536.75;;;4.65;44.63
35489;BME280;21602;55.670;37.578;2023-03-20T06:46:21;99537.28;;;4.75;44.71
35489;BME280;21602;55.670;37.578;2023-03-20T06:48:49;99531.47;;;4.86;44.97
35489;BME280;21602;55.670;37.578;2023-03-20T06:51:15;99527.28;;;4.99;44.85
35489;BME280;21602;55.670;37.578;2023-03-20T06:53:48;99526.97;;;5.15;44.82
35489;BME280;21602;55.670;37.578;2023-03-20T06:56:18;99530.75;;;5.34;44.92
35489;BME280;21602;55.670;37.578;2023-03-20T06:58:44;99529.44;;;5.51;44.65
35489;BME280;21602;55.670;37.578;2023-03-20T07:01:12;99528.47;;;5.65;44.44
35489;BME280;21602;55.670;37.578;2023-03-20T07:03:39;99524.66;;;5.75;44.18
35489;BME280;21602;55.670;37.578;2023-03-20T07:06:07;99523.63;;;5.82;44.54
35489;BME280;21602;55.670;37.578;2023-03-20T07:08:36;99524.34;;;5.98;44.50
35489;BME280;21602;55.670;37.578;2023-03-20T07:11:03;99527.84;;;6.11;44.19
35489;BME280;21602;55.670;37.578;2023-03-20T07:13:30;99518.50;;;6.22;44.02
35489;BME280;21602;55.670;37.578;2023-03-20T07:16:00;99513.00;;;6.24;43.58
35489;BME280;21602;55.670;37.578;2023-03-20T07:18:27;99522.16;;;6.14;43.41
35489;BME280;21602;55.670;37.578;2023-03-20T07:20:59;99514.78;;;6.10;43.24
35489;BME280;21602;55.670;37.578;2023-03-20T07:23:28;99511.94;;;6.11;43.13
35489;BME280;21602;55.670;37.578;2023-03-20T07:25:54;99513.16;;;6.15;43.37
35489;BME280;21602;55.670;37.578;2023-03-20T07:28:20;99519.28;;;6.09;42.71
35489;BME280;21602;55.670;37.578;2023-03-20T07:30:53;99513.34;;;6.07;43.01
35489;BME280;21602;55.670;37.578;2023-03-20T07:33:18;99512.16;;;6.10;42.99
35489;BME280;21602;55.670;37.578;2023-03-20T07:35:45;99510.72;;;6.14;42.73
35489;BME280;21602;55.670;37.578;2023-03-20T07:38:11;99506.63;;;6.11;43.11
35489;BME280;21602;55.670;37.578;2023-03-20T07:40:48;99508.88;;;6.08;43.06
35489;BME280;21602;55.670;37.578;2023-03-20T07:43:16;99503.97;;;6.05;43.20
35489;BME280;21602;55.670;37.578;2023-03-20T07:46:02;99501.13;;;6.00;42.87
35489;BME280;21602;55.670;37.578;2023-03-20T07:48:28;99504.13;;;5.90;42.90
35489;BME280;21602;55.670;37.578;2023-03-20T07:50:54;99505.72;;;5.84;44.23
35489;BME280;21602;55.670;37.578;2023-03-20T07:53:20;99500.63;;;5.83;43.85
35489;BME280;21602;55.670;37.578;2023-03-20T07:55:47;99503.72;;;5.93;44.08
35489;BME280;21602;55.670;37.578;2023-03-20T07:58:13;99505.38;;;5.94;43.64
35489;BME280;21602;55.670;37.578;2023-03-20T08:00:39;99497.66;;;5.99;44.38
35489;BME280;21602;55.670;37.578;2023-03-20T08:03:05;99501.72;;;6.02;43.29
35489;BME280;21602;55.670;37.578;2023-03-20T08:05:31;99502.97;;;6.06;43.61
35489;BME280;21602;55.670;37.578;2023-03-20T08:07:58;99503.00;;;6.19;43.41
35489;BME280;21602;55.670;37.578;2023-03-20T08:10:24;99495.25;;;6.24;43.88
35489;BME280;21602;55.670;37.578;2023-03-20T08:12:50;99497.50;;;6.34;43.45
35489;BME280;21602;55.670;37.578;2023-03-20T08:15:15;99492.00;;;6.42;42.91
35489;BME280;21602;55.670;37.578;2023-03-20T08:17:43;99487.94;;;6.46;42.85
35489;BME280;21602;55.670;37.578;2023-03-20T08:20:11;99500.38;;;6.52;43.49
35489;BME280;21602;55.670;37.578;2023-03-20T08:22:38;99491.19;;;6.61;42.73
35489;BME280;21602;55.670;37.578;2023-03-20T08:25:04;99483.44;;;6.66;43.58
35489;BME280;21602;55.670;37.578;2023-03-20T08:27:30;99483.03;;;6.70;42.63
35489;BME280;21602;55.670;37.578;2023-03-20T08:29:56;99482.41;;;6.81;42.34
35489;BME280;21602;55.670;37.578;2023-03-20T08:32:22;99484.25;;;6.93;42.08
35489;BME280;21602;55.670;37.578;2023-03-20T08:34:48;99475.66;;;7.05;41.91
35489;BME280;21602;55.670;37.578;2023-03-20T08:37:13;99476.44;;;7.18;41.26
35489;BME280;21602;55.670;37.578;2023-03-20T08:39:40;99480.09;;;7.24;41.21
35489;BME280;21602;55.670;37.578;2023-03-20T08:42:06;99479.25;;;7.37;41.42
35489;BME280;21602;55.670;37.578;2023-03-20T08:44:32;99475.72;;;7.50;40.93
35489;BME280;21602;55.670;37.578;2023-03-20T08:46:58;99468.09;;;7.66;40.59
35489;BME280;21602;55.670;37.578;2023-03-20T08:49:24;99460.88;;;7.74;39.69
35489;BME280;21602;55.670;37.578;2023-03-20T08:51:50;99464.78;;;7.71;38.58
35489;BME280;21602;55.670;37.578;2023-03-20T08:54:16;99459.75;;;7.56;38.31
35489;BME280;21602;55.670;37.578;2023-03-20T08:56:44;99462.47;;;7.43;38.16
35489;BME280;21602;55.670;37.578;2023-03-20T08:59:10;99460.47;;;7.32;38.34
35489;BME280;21602;55.670;37.578;2023-03-20T09:01:40;99453.94;;;7.28;38.71
35489;BME280;21602;55.670;37.578;2023-03-20T09:04:07;99468.84;;;7.29;38.31
35489;BME280;21602;55.670;37.578;2023-03-20T09:06:35;99458.59;;;7.39;39.33
35489;BME280;21602;55.670;37.578;2023-03-20T09:09:01;99463.28;;;7.50;38.54
35489;BME280;21602;55.670;37.578;2023-03-20T09:11:28;99457.69;;;7.58;38.87
35489;BME280;21602;55.670;37.578;2023-03-20T09:13:54;99461.34;;;7.64;38.25
35489;BME280;21602;55.670;37.578;2023-03-20T09:16:19;99461.97;;;7.66;38.04
35489;BME280;21602;55.670;37.578;2023-03-20T09:18:45;99455.41;;;7.68;38.67
35489;BME280;21602;55.670;37.578;2023-03-20T09:21:11;99455.03;;;7.65;38.09
35489;BME280;21602;55.670;37.578;2023-03-20T09:23:37;99455.72;;;7.47;37.88
35489;BME280;21602;55.670;37.578;2023-03-20T09:26:03;99453.50;;;7.31;38.76
35489;BME280;21602;55.670;37.578;2023-03-20T09:28:29;99446.56;;;7.30;38.48
35489;BME280;21602;55.670;37.578;2023-03-20T09:30:56;99453.91;;;7.41;38.38
35489;BME280;21602;55.670;37.578;2023-03-20T09:33:24;99451.00;;;7.49;38.17
35489;BME280;21602;55.670;37.578;2023-03-20T09:35:53;99446.66;;;7.55;37.69
35489;BME280;21602;55.670;37.578;2023-03-20T09:38:19;99446.47;;;7.56;37.42
35489;BME280;21602;55.670;37.578;2023-03-20T09:40:56;99443.59;;;7.58;37.20
35489;BME280;21602;55.670;37.578;2023-03-20T09:46:31;99432.09;;;7.70;37.78
35489;BME280;21602;55.670;37.578;2023-03-20T09:56:56;99417.06;;;7.51;37.97
35489;BME280;21602;55.670;37.578;2023-03-20T09:59:24;99417.91;;;7.45;38.27
35489;BME280;21602;55.670;37.578;2023-03-20T10:02:17;99407.94;;;7.34;38.38
35489;BME280;21602;55.670;37.578;2023-03-20T10:04:52;99403.91;;;7.25;38.62
35489;BME280;21602;55.670;37.578;2023-03-20T10:07:20;99403.28;;;7.29;38.97
35489;BME280;21602;55.670;37.578;2023-03-20T10:09:47;99407.91;;;7.40;38.90
35489;BME280;21602;55.670;37.578;2023-03-20T10:15:20;99399.72;;;7.49;38.37
35489;BME280;21602;55.670;37.578;2023-03-20T10:20:42;99388.22;;;7.55;38.66
35489;BME280;21602;55.670;37.578;2023-03-20T10:25:50;99381.00;;;7.68;38.92
35489;BME280;21602;55.670;37.578;2023-03-20T10:41:54;99370.50;;;8.37;40.06
35489;BME280;21602;55.670;37.578;2023-03-20T10:44:38;99363.72;;;8.41;40.39
35489;BME280;21602;55.670;37.578;2023-03-20T10:47:12;99364.72;;;8.40;40.46
35489;BME280;21602;55.670;37.578;2023-03-20T10:50:04;99360.75;;;8.49;40.67
35489;BME280;21602;55.670;37.578;2023-03-20T10:52:35;99352.94;;;8.54;40.90
35489;BME280;21602;55.670;37.578;2023-03-20T10:55:10;99352.50;;;8.57;41.09
35489;BME280;21602;55.670;37.578;2023-03-20T10:57:39;99353.31;;;8.58;41.18
35489;BME280;21602;55.670;37.578;2023-03-20T11:00:18;99349.25;;;8.55;41.70
35489;BME280;21602;55.670;37.578;2023-03-20T11:02:47;99342.13;;;8.49;41.72
35489;BME280;21602;55.670;37.578;2023-03-20T11:05:30;99340.75;;;8.46;41.78
35489;BME280;21602;55.670;37.578;2023-03-20T11:08:04;99334.00;;;8.44;42.31
35489;BME280;21602;55.670;37.578;2023-03-20T11:10:33;99342.44;;;8.41;42.08
35489;BME280;21602;55.670;37.578;2023-03-20T11:13:15;99335.47;;;8.40;42.67
35489;BME280;21602;55.670;37.578;2023-03-20T11:15:41;99335.13;;;8.36;42.64
35489;BME280;21602;55.670;37.578;2023-03-20T11:18:10;99333.50;;;8.29;42.78
35489;BME280;21602;55.670;37.578;2023-03-20T11:20:45;99333.91;;;8.32;43.07
35489;BME280;21602;55.670;37.578;2023-03-20T11:23:17;99331.34;;;8.44;42.96
35489;BME280;21602;55.670;37.578;2023-03-20T11:25:52;99337.16;;;8.59;43.14
35489;BME280;21602;55.670;37.578;2023-03-20T11:33:39;99319.09;;;8.61;43.27
35489;BME280;21602;55.670;37.578;2023-03-20T11:36:22;99318.72;;;8.76;43.26
35489;BME280;21602;55.670;37.578;2023-03-20T11:38:51;99315.31;;;8.26;44.07
35489;BME280;21602;55.670;37.578;2023-03-20T11:41:27;99316.66;;;8.35;44.16
35489;BME280;21602;55.670;37.578;2023-03-20T11:43:53;99307.69;;;8.36;43.95
35489;BME280;21602;55.670;37.578;2023-03-20T11:46:21;99306.81;;;8.42;43.79
35489;BME280;21602;55.670;37.578;2023-03-20T11:49:06;99307.56;;;8.49;44.03
35489;BME280;21602;55.670;37.578;2023-03-20T11:51:40;99302.03;;;8.51;44.14
35489;BME280;21602;55.670;37.578;2023-03-20T11:54:11;99307.03;;;8.59;44.00
35489;BME280;21602;55.670;37.578;2023-03-20T11:56:50;99300.47;;;8.61;44.20
35489;BME280;21602;55.670;37.578;2023-03-20T11:59:17;99286.88;;;8.69;44.36
35489;BME280;21602;55.670;37.578;2023-03-20T12:01:51;99281.97;;;8.85;44.13
35489;BME280;21602;55.670;37.578;2023-03-20T12:04:32;99278.69;;;9.01;44.06
35489;BME280;21602;55.670;37.578;2023-03-20T12:07:18;99275.16;;;9.07;44.22
35489;BME280;21602;55.670;37.578;2023-03-20T12:10:05;99273.75;;;9.05;44.00
35489;BME280;21602;55.670;37.578;2023-03-20T12:12:51;99272.50;;;9.07;44.03
35489;BME280;21602;55.670;37.578;2023-03-20T12:15:25;99270.84;;;9.06;43.91
35489;BME280;21602;55.670;37.578;2023-03-20T12:20:40;99265.66;;;9.11;43.70
35489;BME280;21602;55.670;37.578;2023-03-20T12:34:11;99257.09;;;9.09;44.39
35489;BME280;21602;55.670;37.578;2023-03-20T12:36:43;99244.50;;;9.16;44.12
35489;BME280;21602;55.670;37.578;2023-03-20T12:39:16;99244.03;;;9.19;43.76
35489;BME280;21602;55.670;37.578;2023-03-20T12:42:10;99239.88;;;9.23;43.73
35489;BME280;21602;55.670;37.578;2023-03-20T12:45:12;99234.56;;;9.23;43.85
35489;BME280;21602;55.670;37.578;2023-03-20T12:50:34;99231.69;;;9.37;43.60
35489;BME280;21602;55.670;37.578;2023-03-20T13:14:30;99210.63;;;9.05;43.91
35489;BME280;21602;55.670;37.578;2023-03-20T13:17:08;99201.28;;;9.14;43.95
35489;BME280;21602;55.670;37.578;2023-03-20T13:30:56;99202.34;;;9.25;43.52
35489;BME280;21602;55.670;37.578;2023-03-20T13:38:59;99185.00;;;9.22;43.64
35489;BME280;21602;55.670;37.578;2023-03-20T13:41:28;99181.84;;;9.26;43.61
35489;BME280;21602;55.670;37.578;2023-03-20T13:43:59;99182.56;;;9.33;43.55
35489;BME280;21602;55.670;37.578;2023-03-20T13:46:35;99180.16;;;9.43;43.22
35489;BME280;21602;55.670;37.578;2023-03-20T13:49:25;99181.31;;;9.47;43.66
35489;BME280;21602;55.670;37.578;2023-03-20T13:55:11;99174.94;;;9.48;43.71
35489;BME280;21602;55.670;37.578;2023-03-20T14:00:30;99167.16;;;9.35;44.50
35489;BME280;21602;55.670;37.578;2023-03-20T14:05:25;99163.31;;;9.19;44.90
35489;BME280;21602;55.670;37.578;2023-03-20T14:07:56;99157.06;;;9.13;44.93
35489;BME280;21602;55.670;37.578;2023-03-20T14:12:54;99153.34;;;9.03;45.32
35489;BME280;21602;55.670;37.578;2023-03-20T14:15:21;99148.34;;;8.94;45.65
35489;BME280;21602;55.670;37.578;2023-03-20T14:17:54;99153.03;;;8.81;46.07
35489;BME280;21602;55.670;37.578;2023-03-20T14:20:28;99144.34;;;8.74;46.08
35489;BME280;21602;55.670;37.578;2023-03-20T14:22:56;99144.66;;;8.65;46.43
35489;BME280;21602;55.670;37.578;2023-03-20T14:25:23;99138.41;;;8.60;46.71
35489;BME280;21602;55.670;37.578;2023-03-20T14:27:56;99153.38;;;8.54;46.80
35489;BME280;21602;55.670;37.578;2023-03-20T14:35:35;99145.59;;;8.41;47.60
35489;BME280;21602;55.670;37.578;2023-03-20T14:38:06;99148.97;;;8.30;47.98
35489;BME280;21602;55.670;37.578;2023-03-20T14:40:41;99147.63;;;8.20;48.29
35489;BME280;21602;55.670;37.578;2023-03-20T14:46:24;99150.63;;;8.12;48.97
35489;BME280;21602;55.670;37.578;2023-03-20T14:48:50;99139.84;;;8.07;49.09
35489;BME280;21602;55.670;37.578;2023-03-20T14:53:56;99136.38;;;7.88;49.56
35489;BME280;21602;55.670;37.578;2023-03-20T14:56:32;99139.88;;;7.82;49.90
35489;BME280;21602;55.670;37.578;2023-03-20T14:59:03;99135.69;;;7.75;49.96
35489;BME280;21602;55.670;37.578;2023-03-20T15:01:44;99135.88;;;7.73;50.14
35489;BME280;21602;55.670;37.578;2023-03-20T15:04:34;99147.41;;;7.67;50.42
35489;BME280;21602;55.670;37.578;2023-03-20T15:07:33;99137.06;;;7.59;50.73
35489;BME280;21602;55.670;37.578;2023-03-20T15:10:01;99139.34;;;7.55;50.52
35489;BME280;21602;55.670;37.578;2023-03-20T15:12:34;99137.13;;;7.52;50.91
35489;BME280;21602;55.670;37.578;2023-03-20T15:15:05;99135.94;;;7.48;51.07
35489;BME280;21602;55.670;37.578;2023-03-20T15:17:39;99134.75;;;7.44;51.24
35489;BME280;21602;55.670;37.578;2023-03-20T15:22:54;99134.00;;;7.37;51.60
35489;BME280;21602;55.670;37.578;2023-03-20T15:25:40;99141.34;;;7.35;51.97
35489;BME280;21602;55.670;37.578;2023-03-20T15:28:16;99137.72;;;7.29;51.82
35489;BME280;21602;55.670;37.578;2023-03-20T15:30:48;99134.69;;;7.26;52.07
35489;BME280;21602;55.670;37.578;2023-03-20T15:33:34;99139.00;;;7.27;52.32
35489;BME280;21602;55.670;37.578;2023-03-20T15:36:09;99132.50;;;7.23;52.22
35489;BME280;21602;55.670;37.578;2023-03-20T15:38:41;99129.66;;;7.17;52.65
35489;BME280;21602;55.670;37.578;2023-03-20T15:41:24;99130.69;;;7.16;52.75
35489;BME280;21602;55.670;37.578;2023-03-20T15:43:51;99129.72;;;7.11;52.80
35489;BME280;21602;55.670;37.578;2023-03-20T15:46:17;99126.88;;;7.06;52.76
35489;BME280;21602;55.670;37.578;2023-03-20T15:48:48;99121.66;;;6.99;52.88
35489;BME280;21602;55.670;37.578;2023-03-20T15:51:15;99126.97;;;6.92;52.81
35489;BME280;21602;55.670;37.578;2023-03-20T15:53:44;99123.19;;;6.82;53.37
35489;BME280;21602;55.670;37.578;2023-03-20T15:56:16;99124.06;;;6.69;53.64